0B7 weather

Warren-Sugarbush Airport
Warren, Vermont, United States

Public forecast

Using degrees Fahrenheit for public forecast. Weather courtesy of forecast.io.

METAR (pilot weather report)

Closest report is Edward F Knapp State Airport, 12.5 nm (23.2 km) ENE. Retrieved 2019/07/18 03:39 UTC (15 minutes ago):

KMPV 180339Z AUTO 33003KT 10SM SCT001 SCT014 19/19 A3001 RMK AO2 T01940194 $

TAF (pilot weather forecast)

Forecast is more than 12 hours old.

Closest forecast is Edward F Knapp State Airport, 12.5 nm (23.2 km) ENE. Retrieved 2019/07/17 00:42 UTC (1 day ago):

TAF KMPV 172339Z 1800/1824 00000KT P6SM VCSH BKN045 FM180400 00000KT 3SM BR SCT040 TEMPO 1804/1806 1SM BR SCT003 FM180600 00000KT 1SM BR BKN003 TEMPO 1806/1810 1/2SM FG FM181300 15004KT P6SM BKN045